LFHP/LPY METAR and TAF weather

Enter ICAO airport designator
Station Type Date Time Source
LFHP METAR 2020/05/25 19:00 UTC NOAA

LFHP 251900Z AUTO 05004KT 010V080 CAVOK 16/07 Q1030


Station Type Date Time Source
LFHP Decoded METAR 2020/05/25 19:00 UTC NOAA

Le Puy, France (LFHP) 45-05N 003-46E 833M
May 25, 2020 - 03:00 PM EDT / 2020.05.25 1900 UTC
Wind: from the NE (050 degrees) at 5 MPH (4 KT) (direction variable):0
Visibility: greater than 7 mile(s):0
Temperature: 60 F (16 C)
Dew Point: 44 F (7 C)
Relative Humidity: 55%
Pressure (altimeter): 30.42 in. Hg (1030 hPa)
ob: LFHP 251900Z AUTO 05004KT 010V080 CAVOK 16/07 Q1030
cycle: 19

Station Type Date Time Source
LFHP TAF UTC NOAA

Error!

Example: see airport list